createdAt,value
2023-06-05T00:00:27.961Z,57240.41
2023-06-05T00:02:58.386Z,57233.00
2023-06-05T00:05:28.619Z,57216.05
2023-06-05T00:07:59.386Z,57261.59
2023-06-05T00:10:29.668Z,57228.76
2023-06-05T00:13:00.020Z,57237.23
2023-06-05T00:15:30.830Z,57231.94
2023-06-05T00:18:00.976Z,57226.64
2023-06-05T00:20:31.439Z,57243.59
2023-06-05T00:23:01.939Z,57245.71
2023-06-05T00:25:32.926Z,57240.41
2023-06-05T00:28:02.984Z,57242.53
2023-06-05T00:30:33.319Z,57255.24
2023-06-05T00:33:03.838Z,57234.06
2023-06-05T00:35:34.219Z,57218.17
2023-06-05T00:38:04.357Z,57247.82
2023-06-05T00:40:35.036Z,57221.35
2023-06-05T00:43:05.383Z,57202.29
2023-06-05T00:45:35.838Z,57248.88
2023-06-05T00:48:06.265Z,57246.77
2023-06-05T00:50:57.470Z,57234.06
2023-06-05T00:53:28.861Z,57234.06
2023-06-05T00:55:59.808Z,57242.53
2023-06-05T00:58:32.035Z,57233.00
2023-06-05T01:01:03.614Z,57225.59
2023-06-05T01:03:35.088Z,57219.23
2023-06-05T01:06:05.342Z,57218.17
2023-06-05T01:08:40.216Z,57212.87
2023-06-05T01:11:19.105Z,57227.70
2023-06-05T01:16:49.601Z,57236.18
2023-06-05T01:19:20.657Z,57255.24
2023-06-05T01:21:50.770Z,57237.23
2023-06-05T01:24:21.193Z,57255.24
2023-06-05T01:27:06.319Z,57225.59
2023-06-05T01:29:55.948Z,57225.59
2023-06-05T01:35:16.395Z,57237.23
2023-06-05T01:37:48.594Z,57220.29
2023-06-05T01:40:24.437Z,57239.35
2023-06-05T01:42:56.589Z,57251.00
2023-06-05T01:45:27.596Z,57231.94
2023-06-05T01:47:58.716Z,57231.94
2023-06-05T01:50:29.151Z,57231.94
2023-06-05T01:52:59.243Z,57198.05
2023-06-05T01:55:29.571Z,57196.99
2023-06-05T01:57:59.818Z,57242.53
2023-06-05T02:00:30.078Z,57235.12
2023-06-05T02:03:00.346Z,57235.12
2023-06-05T02:05:30.959Z,57223.46
2023-06-05T02:08:02.356Z,57218.17
2023-06-05T02:10:33.429Z,57237.23
2023-06-05T02:13:03.674Z,57215.00
2023-06-05T02:15:33.799Z,57236.18
2023-06-05T02:18:05.046Z,57211.82
2023-06-05T02:20:36.250Z,57218.17
2023-06-05T02:23:06.689Z,57217.11
2023-06-05T02:25:37.220Z,57222.41
2023-06-05T02:28:07.601Z,57238.29
2023-06-05T02:30:37.906Z,57212.87
2023-06-05T02:33:08.398Z,57216.05
2023-06-05T02:35:39.449Z,57216.05
2023-06-05T02:38:15.966Z,57222.41
2023-06-05T02:40:46.222Z,57217.11
2023-06-05T02:43:16.814Z,57218.17
2023-06-05T02:45:47.018Z,57201.23
2023-06-05T02:48:17.385Z,57229.82
2023-06-05T02:50:47.798Z,57227.70
2023-06-05T02:53:18.356Z,57225.59
2023-06-05T02:55:48.849Z,57225.59
2023-06-05T02:58:20.600Z,57220.29
2023-06-05T03:00:50.874Z,57217.11
2023-06-05T03:03:21.171Z,57247.82
2023-06-05T03:05:51.425Z,57231.94
2023-06-05T03:08:21.608Z,57238.29
2023-06-05T03:10:52.008Z,57238.29
2023-06-05T03:13:22.668Z,57228.76
2023-06-05T03:15:52.866Z,57241.47
2023-06-05T03:18:23.128Z,57241.47
2023-06-05T03:20:54.572Z,57238.29
2023-06-05T03:23:45.718Z,57226.64
2023-06-05T03:26:17.457Z,57228.76
2023-06-05T03:28:47.863Z,57231.94
2023-06-05T03:31:18.445Z,57217.11
2023-06-05T03:33:48.724Z,57251.00
2023-06-05T03:36:18.979Z,57237.23
2023-06-05T03:38:49.106Z,57235.12
2023-06-05T03:41:19.484Z,57227.70
2023-06-05T03:43:50.074Z,57221.35
2023-06-05T03:46:21.105Z,57242.53
2023-06-05T03:48:51.513Z,57242.53
2023-06-05T03:51:21.773Z,57223.46
2023-06-05T03:53:52.141Z,57242.53
2023-06-05T03:56:22.384Z,57242.53
2023-06-05T03:58:52.909Z,57227.70
2023-06-05T04:01:23.234Z,57255.24
2023-06-05T04:03:54.555Z,57255.24
2023-06-05T04:06:24.838Z,57229.82
2023-06-05T04:08:54.982Z,57229.82
2023-06-05T04:11:25.237Z,57246.77
2023-06-05T04:14:16.320Z,57235.12
2023-06-05T04:16:46.725Z,57235.12
2023-06-05T04:19:17.187Z,57252.06
2023-06-05T04:21:48.075Z,57233.00
2023-06-05T04:24:18.500Z,57239.35
2023-06-05T04:26:48.731Z,57258.41
2023-06-05T04:29:19.023Z,57258.41
2023-06-05T04:31:49.387Z,57244.65
2023-06-05T04:34:20.048Z,57244.65
2023-06-05T04:36:50.153Z,57249.95
2023-06-05T04:39:20.400Z,57261.59
2023-06-05T04:42:03.085Z,57261.59
2023-06-05T04:44:22.315Z,57274.30
2023-06-05T04:46:52.607Z,57302.89
2023-06-05T04:49:23.971Z,57254.18
2023-06-05T04:51:54.089Z,57254.18
2023-06-05T04:54:24.377Z,57289.13
2023-06-05T04:56:54.521Z,57270.06
2023-06-05T04:59:24.846Z,57297.60
2023-06-05T05:01:55.172Z,57298.66
2023-06-05T05:04:25.510Z,57277.48
2023-06-05T05:06:56.047Z,57276.42
2023-06-05T05:09:26.579Z,57302.89
2023-06-05T05:11:56.914Z,57280.66
2023-06-05T05:14:28.300Z,57280.66
2023-06-05T05:16:58.852Z,57297.60
2023-06-05T05:19:29.352Z,57312.43
2023-06-05T05:21:59.694Z,57297.60
2023-06-05T05:24:29.835Z,57297.60
2023-06-05T05:27:01.633Z,57339.96
2023-06-05T05:29:32.426Z,57337.84
2023-06-05T05:32:02.680Z,57313.48
2023-06-05T05:34:33.222Z,57313.48
2023-06-05T05:37:24.855Z,57328.31
2023-06-05T05:43:51.843Z,57359.03
2023-06-05T05:46:30.252Z,57353.73
2023-06-05T05:50:24.221Z,57374.91
2023-06-05T05:54:57.092Z,57390.80
2023-06-05T05:57:27.499Z,57386.56
2023-06-05T05:59:57.940Z,57386.56
2023-06-05T06:02:28.277Z,57409.86
2023-06-05T06:04:58.764Z,57402.45
2023-06-05T06:07:29.280Z,57397.15
2023-06-05T06:09:59.913Z,57389.74
2023-06-05T06:12:30.521Z,57390.80
2023-06-05T06:15:00.863Z,57390.80
2023-06-05T06:17:31.405Z,57409.86
2023-06-05T06:20:01.799Z,57406.68
2023-06-05T06:22:32.116Z,57427.87
2023-06-05T06:25:02.358Z,57403.51
2023-06-05T06:27:35.744Z,57386.56
2023-06-05T06:32:44.595Z,57473.41
2023-06-05T06:35:14.776Z,57435.28
2023-06-05T06:37:45.242Z,57454.34
2023-06-05T06:40:16.026Z,57454.34
2023-06-05T06:42:46.234Z,57475.52
2023-06-05T06:45:16.967Z,57475.52
2023-06-05T06:47:59.125Z,57449.05
2023-06-05T06:50:19.439Z,57449.05
2023-06-05T06:52:49.928Z,57533.77
2023-06-05T06:55:20.606Z,57543.31
2023-06-05T06:57:51.146Z,57543.31
2023-06-05T07:00:21.534Z,57593.09
2023-06-05T07:02:52.369Z,57587.79
2023-06-05T07:05:22.851Z,57582.50
2023-06-05T07:07:53.456Z,57615.33
2023-06-05T07:10:24.419Z,57600.50
2023-06-05T07:12:54.669Z,57620.62
2023-06-05T07:15:25.391Z,57620.62
2023-06-05T07:17:55.539Z,57640.75
2023-06-05T07:20:25.777Z,57626.98
2023-06-05T07:22:56.581Z,57626.98
2023-06-05T07:25:26.735Z,57623.80
2023-06-05T07:27:57.256Z,57649.22
2023-06-05T07:30:28.214Z,57714.89
2023-06-05T07:32:58.800Z,57709.59
2023-06-05T07:35:28.849Z,57709.59
2023-06-05T07:37:59.334Z,57694.77
2023-06-05T07:40:29.579Z,57730.78
2023-06-05T07:43:02.802Z,57733.96
2023-06-05T07:45:33.881Z,57789.04
2023-06-05T07:48:04.493Z,57785.86
2023-06-05T07:50:34.878Z,57785.86
2023-06-05T07:53:05.505Z,57820.81
2023-06-05T07:55:36.289Z,57790.09
2023-06-05T07:58:07.065Z,57798.57
2023-06-05T08:00:37.292Z,57725.48
2023-06-05T08:03:08.033Z,57725.48
2023-06-05T08:05:40.764Z,57713.83
2023-06-05T08:08:11.456Z,57732.89
2023-06-05T08:10:42.245Z,57779.50
2023-06-05T08:13:12.971Z,57779.50
2023-06-05T08:15:44.018Z,57818.69
2023-06-05T08:18:15.727Z,57818.69
2023-06-05T08:20:45.968Z,57771.03
2023-06-05T08:23:16.459Z,57771.03
2023-06-05T08:25:46.906Z,57730.78
2023-06-05T08:28:17.460Z,57763.61
2023-06-05T08:30:48.045Z,57862.12
2023-06-05T08:33:20.459Z,57875.89
2023-06-05T08:35:50.392Z,57786.91
2023-06-05T08:38:20.819Z,57870.59
2023-06-05T08:40:54.107Z,57856.82
2023-06-05T08:43:24.519Z,57905.55
2023-06-05T08:45:58.001Z,57905.55
2023-06-05T08:48:32.843Z,57902.37
2023-06-05T08:51:03.121Z,57873.77
2023-06-05T08:53:34.785Z,57939.44
2023-06-05T08:56:05.557Z,57939.44
2023-06-05T08:58:37.939Z,57865.30
2023-06-05T09:01:08.390Z,57868.47
2023-06-05T09:03:38.777Z,57868.47
2023-06-05T09:06:11.682Z,57924.61
2023-06-05T09:08:41.840Z,57909.79
2023-06-05T09:11:26.927Z,57896.02
2023-06-05T09:13:59.956Z,57928.85
2023-06-05T09:16:41.757Z,57928.85
2023-06-05T09:19:13.709Z,57973.34
2023-06-05T09:24:51.935Z,57966.98
2023-06-05T09:27:22.137Z,57939.44
2023-06-05T09:29:55.415Z,57939.44
2023-06-05T09:32:26.307Z,58021.01
2023-06-05T09:34:57.680Z,57936.27
2023-06-05T09:37:35.217Z,57964.86
2023-06-05T09:40:06.656Z,57938.38
2023-06-05T09:42:38.046Z,57944.74
2023-06-05T09:45:29.032Z,57941.56
2023-06-05T09:48:02.225Z,57921.43
2023-06-05T09:50:35.355Z,57972.28
2023-06-05T09:53:05.923Z,57963.80
2023-06-05T09:55:37.408Z,57963.80
2023-06-05T09:58:08.473Z,57973.34
2023-06-05T10:00:44.045Z,57989.23
2023-06-05T10:03:17.590Z,57988.17
2023-06-05T10:05:49.560Z,58063.38
2023-06-05T10:08:20.270Z,58053.84
2023-06-05T10:10:50.718Z,58053.84
2023-06-05T10:13:21.945Z,57963.80
2023-06-05T10:15:55.449Z,57963.80
2023-06-05T10:18:26.775Z,57947.92
2023-06-05T10:20:59.717Z,57947.92
2023-06-05T10:23:39.781Z,57927.79
2023-06-05T10:26:16.587Z,57927.79
2023-06-05T10:28:52.657Z,57968.04
2023-06-05T10:31:25.778Z,57968.04
2023-06-05T10:34:17.034Z,58096.21
2023-06-05T10:37:19.222Z,57995.58
2023-06-05T10:39:51.470Z,58049.61
2023-06-05T10:42:26.924Z,58025.24
2023-06-05T10:44:58.468Z,58025.24
2023-06-05T10:47:39.737Z,58103.63
2023-06-05T10:50:20.936Z,58103.63
2023-06-05T10:52:52.982Z,57993.46
2023-06-05T10:55:24.593Z,58005.12
2023-06-05T10:58:12.400Z,58005.12
2023-06-05T11:01:18.828Z,58042.19
2023-06-05T11:03:55.047Z,58121.64
2023-06-05T11:06:29.204Z,58121.64
2023-06-05T11:09:16.362Z,58085.62
2023-06-05T11:12:00.296Z,58186.26
2023-06-05T11:14:52.028Z,58125.87
2023-06-05T11:17:32.557Z,58125.87
2023-06-05T11:20:31.595Z,58251.93
2023-06-05T11:23:04.706Z,58003.00
2023-06-05T11:25:36.431Z,58085.62
2023-06-05T11:28:09.096Z,58078.21
2023-06-05T11:30:47.794Z,58078.21
2023-06-05T11:33:20.036Z,58105.75
2023-06-05T11:35:52.733Z,58081.39
2023-06-05T11:38:25.582Z,58131.17
2023-06-05T11:40:56.347Z,58131.17
2023-06-05T11:43:26.886Z,58201.09
2023-06-05T11:45:59.112Z,58140.71
2023-06-05T11:48:31.011Z,58140.71
2023-06-05T11:51:03.722Z,58255.11
2023-06-05T11:53:34.876Z,58255.11
2023-06-05T11:56:08.953Z,58180.96
2023-06-05T11:58:42.488Z,58244.52
2023-06-05T12:01:23.960Z,58244.52
2023-06-05T12:04:05.944Z,58105.75
2023-06-05T12:06:45.494Z,58105.75
2023-06-05T12:09:16.586Z,58167.19
2023-06-05T12:11:47.499Z,58153.42
2023-06-05T12:14:38.751Z,58248.76
2023-06-05T12:17:13.017Z,58248.76
2023-06-05T12:19:43.540Z,58196.85
2023-06-05T12:22:14.796Z,58261.47
2023-06-05T12:24:45.178Z,58261.47
2023-06-05T12:27:15.622Z,58185.20
2023-06-05T12:29:54.211Z,58118.46
2023-06-05T12:32:27.405Z,58097.28
2023-06-05T12:35:05.786Z,58097.28
2023-06-05T12:37:37.146Z,58155.54
2023-06-05T12:40:24.939Z,58211.68
2023-06-05T12:42:48.884Z,58211.68
2023-06-05T12:45:19.012Z,58176.72
2023-06-05T12:47:51.406Z,58238.16
2023-06-05T12:50:21.556Z,58119.52
2023-06-05T12:52:52.101Z,58119.52
2023-06-05T12:55:22.304Z,58168.25
2023-06-05T12:57:52.747Z,58168.25
2023-06-05T13:00:23.214Z,58232.87
2023-06-05T13:02:53.746Z,58242.40
2023-06-05T13:05:23.992Z,58149.18
2023-06-05T13:07:54.174Z,58190.50
2023-06-05T13:10:24.992Z,58276.30
2023-06-05T13:12:55.251Z,58183.08
2023-06-05T13:15:25.706Z,58226.51
2023-06-05T13:17:56.142Z,58226.51
2023-06-05T13:20:26.558Z,58125.87
2023-06-05T13:22:56.739Z,58087.74
2023-06-05T13:25:27.013Z,58200.03
2023-06-05T13:27:57.491Z,58200.03
2023-06-05T13:30:27.743Z,58113.16
2023-06-05T13:32:57.968Z,58070.79
2023-06-05T13:35:28.143Z,58070.79
2023-06-05T13:37:59.789Z,58082.45
2023-06-05T13:40:30.224Z,58061.26
2023-06-05T13:43:00.930Z,58037.95
2023-06-05T13:45:31.392Z,58037.95
2023-06-05T13:48:01.725Z,58115.29
2023-06-05T13:50:32.273Z,58115.29
2023-06-05T13:53:02.518Z,57890.72
2023-06-05T13:55:32.906Z,57890.72
2023-06-05T13:58:03.492Z,57878.01
2023-06-05T14:00:36.616Z,57876.95
2023-06-05T14:03:06.957Z,57771.03
2023-06-05T14:05:38.136Z,57804.92
2023-06-05T14:08:08.268Z,57804.92
2023-06-05T14:10:39.822Z,57742.43
2023-06-05T14:13:10.598Z,57742.43
2023-06-05T14:15:41.194Z,57774.20
2023-06-05T14:18:11.596Z,57787.97
2023-06-05T14:20:41.875Z,57785.86
2023-06-05T14:23:12.353Z,57708.54
2023-06-05T14:25:42.588Z,57702.18
2023-06-05T14:28:13.336Z,57756.20
2023-06-05T14:30:43.889Z,57713.83
2023-06-05T14:33:14.081Z,57713.83
2023-06-05T14:35:44.992Z,57731.84
2023-06-05T14:38:15.466Z,57677.82
2023-06-05T14:40:46.092Z,57694.77
2023-06-05T14:43:16.367Z,57688.41
2023-06-05T14:45:46.622Z,57684.18
2023-06-05T14:48:16.870Z,57697.95
2023-06-05T14:50:47.436Z,57697.95
2023-06-05T14:53:21.269Z,57679.94
2023-06-05T14:55:51.315Z,57669.34
2023-06-05T14:58:21.844Z,57640.75
2023-06-05T15:00:56.751Z,57668.29
2023-06-05T15:03:24.360Z,57668.29
2023-06-05T15:05:57.507Z,57640.75
2023-06-05T15:08:28.859Z,57650.28
2023-06-05T15:11:01.667Z,57649.22
2023-06-05T15:13:32.175Z,57626.98
2023-06-05T15:16:02.443Z,57596.27
2023-06-05T15:18:33.384Z,57568.73
2023-06-05T15:21:04.181Z,57605.80
2023-06-05T15:23:34.647Z,57605.80
2023-06-05T15:26:05.028Z,57637.57
2023-06-05T15:28:35.452Z,57607.91
2023-06-05T15:31:07.422Z,57567.67
2023-06-05T15:33:42.675Z,57567.67
2023-06-05T15:36:16.142Z,57577.20
2023-06-05T15:38:47.969Z,57567.67
2023-06-05T15:41:19.873Z,57567.67
2023-06-05T15:43:50.807Z,57574.02
2023-06-05T15:46:20.962Z,57574.02
2023-06-05T15:48:51.546Z,57533.77
2023-06-05T15:51:21.787Z,57533.77
2023-06-05T15:53:59.562Z,57534.84
2023-06-05T15:56:26.194Z,57532.72
2023-06-05T15:58:56.445Z,57542.25
2023-06-05T16:01:26.660Z,57542.25
2023-06-05T16:03:56.895Z,57526.36
2023-06-05T16:06:27.246Z,57527.42
2023-06-05T16:08:57.688Z,57510.48
2023-06-05T16:11:27.769Z,57518.95
2023-06-05T16:13:58.154Z,57512.59
2023-06-05T16:16:28.584Z,57512.59
2023-06-05T16:18:59.582Z,57511.54
2023-06-05T16:21:32.955Z,57503.06
2023-06-05T16:24:06.394Z,57469.17
2023-06-05T16:26:39.024Z,57520.01
2023-06-05T16:29:11.176Z,57492.47
2023-06-05T16:31:41.397Z,57493.53
2023-06-05T16:34:13.969Z,57493.53
2023-06-05T16:36:46.793Z,57478.70
2023-06-05T16:39:17.406Z,57478.70
2023-06-05T16:41:49.998Z,57476.58
2023-06-05T16:44:21.785Z,57469.17
2023-06-05T16:46:52.659Z,57474.46
2023-06-05T16:49:24.628Z,57474.46
2023-06-05T16:51:55.700Z,57473.41
2023-06-05T16:54:28.230Z,57486.12
2023-06-05T16:57:01.363Z,57488.23
2023-06-05T16:59:31.920Z,57450.11
2023-06-05T17:02:11.376Z,57450.11
2023-06-05T17:04:42.473Z,57475.52
2023-06-05T17:07:20.463Z,57470.23
2023-06-05T17:09:55.889Z,57431.04
2023-06-05T17:12:33.320Z,57446.93
2023-06-05T17:15:08.767Z,57451.16
2023-06-05T17:17:41.278Z,57451.16
2023-06-05T17:20:14.823Z,57424.69
2023-06-05T17:22:45.327Z,57436.34
2023-06-05T17:25:15.688Z,57441.63
2023-06-05T17:27:45.870Z,57441.63
2023-06-05T17:30:17.686Z,57427.87
2023-06-05T17:32:48.718Z,57400.33
2023-06-05T17:35:21.013Z,57386.56
2023-06-05T17:37:51.432Z,57384.44
2023-06-05T17:40:22.648Z,57384.44
2023-06-05T17:42:53.172Z,57400.33
2023-06-05T17:45:23.472Z,57397.15
2023-06-05T17:47:53.888Z,57387.62
2023-06-05T17:50:24.130Z,57377.03
2023-06-05T17:52:57.608Z,57377.03
2023-06-05T17:55:36.214Z,57383.38
2023-06-05T17:58:45.343Z,57387.62
2023-06-05T18:01:13.009Z,57380.21
2023-06-05T18:03:46.253Z,57380.21
2023-06-05T18:06:20.186Z,57349.49
2023-06-05T18:09:00.369Z,57349.49
2023-06-05T18:11:33.174Z,57359.03
2023-06-05T18:14:05.329Z,57361.14
2023-06-05T18:16:36.256Z,57361.14
2023-06-05T18:19:07.332Z,57361.14
2023-06-05T18:21:37.588Z,57335.73
2023-06-05T18:24:08.478Z,57364.32
2023-06-05T18:26:38.968Z,57347.38
2023-06-05T18:29:09.677Z,57361.14
2023-06-05T18:31:40.471Z,57339.96
2023-06-05T18:34:10.751Z,57339.96
2023-06-05T18:36:43.120Z,57316.66
2023-06-05T18:39:14.881Z,57325.14
2023-06-05T18:41:47.024Z,57308.19
2023-06-05T18:44:19.607Z,57312.43
2023-06-05T18:46:50.150Z,57312.43
2023-06-05T18:49:20.620Z,57320.90
2023-06-05T18:51:50.862Z,57327.25
2023-06-05T18:54:22.606Z,57327.25
2023-06-05T18:56:53.014Z,57329.37
2023-06-05T18:59:24.438Z,57342.08
2023-06-05T19:01:54.693Z,57342.08
2023-06-05T19:04:25.018Z,57280.66
2023-06-05T19:06:55.452Z,57314.55
2023-06-05T19:09:25.894Z,57314.55
2023-06-05T19:11:56.282Z,57303.95
2023-06-05T19:14:26.384Z,57312.43
2023-06-05T19:16:56.667Z,57303.95
2023-06-05T19:19:27.089Z,57303.95
2023-06-05T19:21:57.758Z,57296.54
2023-06-05T19:24:28.132Z,57296.54
2023-06-05T19:26:58.303Z,57329.37
2023-06-05T19:29:28.652Z,57329.37
2023-06-05T19:31:59.135Z,57291.25
2023-06-05T19:34:30.173Z,57293.36
2023-06-05T19:37:00.475Z,57294.42
2023-06-05T19:39:30.892Z,57294.42
2023-06-05T19:42:01.524Z,57296.54
2023-06-05T19:44:33.582Z,57271.13
2023-06-05T19:47:04.098Z,57271.13
2023-06-05T19:49:35.899Z,57291.25
2023-06-05T19:52:06.418Z,57317.72
2023-06-05T19:54:57.376Z,57266.89
2023-06-05T19:57:30.143Z,57261.59
2023-06-05T20:00:00.668Z,57261.59
2023-06-05T20:02:31.015Z,57303.95
2023-06-05T20:05:01.139Z,57297.60
2023-06-05T20:07:31.850Z,57293.36
2023-06-05T20:10:02.354Z,57300.78
2023-06-05T20:12:33.185Z,57300.78
2023-06-05T20:15:08.936Z,57278.54
2023-06-05T20:17:39.700Z,57275.36
2023-06-05T20:20:15.346Z,57295.48
2023-06-05T20:22:46.324Z,57273.24
2023-06-05T20:25:16.769Z,57273.24
2023-06-05T20:27:52.946Z,57263.71
2023-06-05T20:30:23.404Z,57263.71
2023-06-05T20:32:54.617Z,57277.48
2023-06-05T20:35:26.239Z,57277.48
2023-06-05T20:37:56.662Z,57289.13
2023-06-05T20:40:27.564Z,57267.95
2023-06-05T20:42:59.260Z,57267.95
2023-06-05T20:45:30.028Z,57277.48
2023-06-05T20:48:04.101Z,57277.48
2023-06-05T20:50:34.577Z,57273.24
2023-06-05T20:53:04.894Z,57280.66
2023-06-05T20:55:35.366Z,57284.89
2023-06-05T20:58:07.414Z,57257.36
2023-06-05T21:00:38.373Z,57277.48
2023-06-05T21:03:08.802Z,57277.48
2023-06-05T21:05:39.394Z,57289.13
2023-06-05T21:08:15.684Z,57289.13
2023-06-05T21:10:45.862Z,57257.36
2023-06-05T21:13:16.273Z,57285.95
2023-06-05T21:15:46.460Z,57253.12
2023-06-05T21:18:16.966Z,57253.12
2023-06-05T21:20:49.118Z,57269.00
2023-06-05T21:23:22.437Z,57273.24
2023-06-05T21:25:52.701Z,57261.59
2023-06-05T21:28:23.399Z,57257.36
2023-06-05T21:30:53.817Z,57248.88
2023-06-05T21:33:24.021Z,57248.88
2023-06-05T21:35:54.200Z,57274.30
2023-06-05T21:38:24.429Z,57237.23
2023-06-05T21:40:54.879Z,57237.23
2023-06-05T21:43:25.199Z,57261.59
2023-06-05T21:45:55.301Z,57254.18
2023-06-05T21:48:25.869Z,57278.54
2023-06-05T21:50:56.798Z,57258.41
2023-06-05T21:53:27.502Z,57240.41
2023-06-05T21:55:57.783Z,57252.06
2023-06-05T21:58:28.100Z,57253.12
2023-06-05T22:00:58.723Z,57253.12
2023-06-05T22:03:29.466Z,57251.00
2023-06-05T22:05:59.808Z,57256.30
2023-06-05T22:08:30.061Z,57251.00
2023-06-05T22:11:00.463Z,57281.71
2023-06-05T22:13:31.194Z,57241.47
2023-06-05T22:16:02.015Z,57224.53
2023-06-05T22:18:32.443Z,57224.53
2023-06-05T22:21:02.541Z,57270.06
2023-06-05T22:23:33.282Z,57270.06
2023-06-05T22:26:03.867Z,57222.41
2023-06-05T22:28:36.180Z,57222.41
2023-06-05T22:31:14.907Z,57231.94
2023-06-05T22:33:50.378Z,57264.77
2023-06-05T22:36:35.533Z,57238.29
2023-06-05T22:39:05.839Z,57238.29
2023-06-05T22:41:36.371Z,57234.06
2023-06-05T22:44:06.574Z,57262.65
2023-06-05T22:46:36.867Z,57226.64
2023-06-05T22:49:07.603Z,57255.24
2023-06-05T22:51:38.090Z,57239.35
2023-06-05T22:54:08.337Z,57238.29
2023-06-05T22:56:39.208Z,57238.29
2023-06-05T22:59:09.430Z,57240.41
2023-06-05T23:01:39.785Z,57249.95
2023-06-05T23:04:30.821Z,57223.46
2023-06-05T23:07:01.091Z,57252.06
2023-06-05T23:09:31.665Z,57219.23
2023-06-05T23:12:01.836Z,57226.64
2023-06-05T23:14:34.020Z,57225.59
2023-06-05T23:17:05.353Z,57225.59
2023-06-05T23:19:36.187Z,57226.64
2023-06-05T23:22:06.957Z,57252.06
2023-06-05T23:24:37.154Z,57225.59
2023-06-05T23:27:07.837Z,57221.35
2023-06-05T23:29:38.073Z,57246.77
2023-06-05T23:32:10.284Z,57246.77
2023-06-05T23:34:40.604Z,57229.82
2023-06-05T23:37:10.931Z,57212.87
2023-06-05T23:39:41.376Z,57216.05
2023-06-05T23:42:11.829Z,57220.29
2023-06-05T23:44:42.507Z,57254.18
2023-06-05T23:47:12.773Z,57254.18
2023-06-05T23:49:43.140Z,57190.64
2023-06-05T23:52:13.411Z,57215.00
2023-06-05T23:54:43.720Z,57235.12
2023-06-05T23:57:13.992Z,57251.00
2023-06-05T23:59:44.240Z,57226.64
